GOPLM EGKK-EGKK
Flight info
| Callsign | GOPLM |
|---|---|
| Flight time | 1h 3m |
| Altitude | 3000 |
| Route | VFR |
| Aircraft | C172/L-SFG/C |
Departure
| Time | 2026-05-04 17:31 |
|---|---|
| Airport | London Gatwick Airport (EGKK) |
Arrival
| Time | 2026-05-04 18:34 |
|---|---|
| Airport | London Gatwick Airport (EGKK) |
| Time | Latitude | Longitude | Altitude | Speed | Heading |
|---|---|---|---|---|---|
| 2026-05-04 17:11 | 51.15397 | -0.19095 | 204 ft | 0 kts | 77° |
| 2026-05-04 17:17 | 51.15397 | -0.19094 | 204 ft | 1 kts | 70° |
| 2026-05-04 17:18 | 51.15405 | -0.19106 | 205 ft | 3 kts | 249° |
| 2026-05-04 17:18 | 51.15396 | -0.19134 | 203 ft | 0 kts | 244° |
| 2026-05-04 17:25 | 51.15393 | -0.19146 | 209 ft | 7 kts | 253° |
| 2026-05-04 17:25 | 51.15318 | -0.19378 | 200 ft | 9 kts | 166° |
| 2026-05-04 17:26 | 51.15160 | -0.19321 | 202 ft | 17 kts | 167° |
| 2026-05-04 17:26 | 51.15002 | -0.19681 | 200 ft | 19 kts | 258° |
| 2026-05-04 17:27 | 51.14942 | -0.20125 | 209 ft | 22 kts | 258° |
| 2026-05-04 17:27 | 51.14870 | -0.20636 | 206 ft | 25 kts | 258° |
| 2026-05-04 17:28 | 51.14796 | -0.21163 | 206 ft | 14 kts | 255° |
| 2026-05-04 17:29 | 51.14776 | -0.21276 | 200 ft | 13 kts | 254° |
| 2026-05-04 17:29 | 51.14665 | -0.21367 | 202 ft | 17 kts | 137° |
| 2026-05-04 17:30 | 51.14682 | -0.19913 | 314 ft | 82 kts | 77° |
| 2026-05-04 17:31 | 51.14975 | -0.18169 | 747 ft | 86 kts | 75° |
| 2026-05-04 17:31 | 51.13571 | -0.19052 | 1077 ft | 121 kts | 229° |
| 2026-05-04 17:32 | 51.12462 | -0.21077 | 1339 ft | 122 kts | 230° |
| 2026-05-04 17:33 | 51.10726 | -0.24255 | 1496 ft | 130 kts | 230° |
| 2026-05-04 17:33 | 51.10157 | -0.25310 | 1492 ft | 125 kts | 230° |
| 2026-05-04 17:34 | 51.08518 | -0.28316 | 1492 ft | 116 kts | 230° |
| 2026-05-04 17:34 | 51.07989 | -0.29282 | 1492 ft | 117 kts | 230° |
| 2026-05-04 17:35 | 51.06393 | -0.32191 | 1495 ft | 116 kts | 230° |
| 2026-05-04 17:35 | 51.05329 | -0.34123 | 1497 ft | 117 kts | 230° |
| 2026-05-04 17:35 | 51.04792 | -0.35103 | 1492 ft | 117 kts | 231° |
| 2026-05-04 17:36 | 51.04258 | -0.36065 | 1498 ft | 117 kts | 230° |
| 2026-05-04 17:36 | 51.03723 | -0.37039 | 1499 ft | 117 kts | 229° |
| 2026-05-04 17:36 | 51.03193 | -0.38028 | 1504 ft | 118 kts | 230° |
| 2026-05-04 17:36 | 51.02658 | -0.39020 | 1504 ft | 119 kts | 230° |
| 2026-05-04 17:37 | 51.02124 | -0.40011 | 1505 ft | 118 kts | 230° |
| 2026-05-04 17:37 | 51.01585 | -0.40997 | 1505 ft | 118 kts | 230° |
| 2026-05-04 17:37 | 51.00869 | -0.41491 | 1491 ft | 116 kts | 168° |
| 2026-05-04 17:37 | 51.00315 | -0.40718 | 1493 ft | 108 kts | 102° |
| 2026-05-04 17:38 | 51.00257 | -0.39550 | 1509 ft | 106 kts | 92° |
| 2026-05-04 17:38 | 51.00210 | -0.38373 | 1509 ft | 107 kts | 91° |
| 2026-05-04 17:38 | 51.00174 | -0.37190 | 1508 ft | 107 kts | 91° |
| 2026-05-04 17:38 | 51.00140 | -0.35994 | 1508 ft | 109 kts | 91° |
| 2026-05-04 17:39 | 51.00063 | -0.33595 | 1509 ft | 107 kts | 90° |
| 2026-05-04 17:39 | 51.00022 | -0.32409 | 1510 ft | 108 kts | 91° |
| 2026-05-04 17:39 | 50.99984 | -0.31211 | 1512 ft | 108 kts | 91° |
| 2026-05-04 17:40 | 50.99947 | -0.30030 | 1508 ft | 108 kts | 91° |
| 2026-05-04 17:40 | 50.99907 | -0.28831 | 1507 ft | 109 kts | 91° |
| 2026-05-04 17:40 | 50.99863 | -0.27641 | 1506 ft | 108 kts | 91° |
| 2026-05-04 17:40 | 50.99814 | -0.26464 | 1499 ft | 106 kts | 91° |
| 2026-05-04 17:41 | 50.99774 | -0.25305 | 1500 ft | 105 kts | 91° |
| 2026-05-04 17:41 | 50.99728 | -0.24135 | 1500 ft | 106 kts | 91° |
| 2026-05-04 17:41 | 50.99685 | -0.22962 | 1500 ft | 106 kts | 91° |
| 2026-05-04 17:41 | 50.99638 | -0.21791 | 1498 ft | 106 kts | 91° |
| 2026-05-04 17:42 | 50.99592 | -0.20621 | 1495 ft | 106 kts | 91° |
| 2026-05-04 17:42 | 50.99550 | -0.19467 | 1496 ft | 105 kts | 91° |
| 2026-05-04 17:42 | 50.99510 | -0.18308 | 1495 ft | 105 kts | 91° |
| 2026-05-04 17:42 | 50.99470 | -0.17154 | 1493 ft | 104 kts | 91° |
| 2026-05-04 17:43 | 50.99427 | -0.16026 | 1499 ft | 102 kts | 91° |
| 2026-05-04 17:43 | 50.99385 | -0.14889 | 1505 ft | 105 kts | 91° |
| 2026-05-04 17:43 | 50.99341 | -0.13717 | 1505 ft | 106 kts | 91° |
| 2026-05-04 17:43 | 50.99298 | -0.12563 | 1504 ft | 104 kts | 91° |
| 2026-05-04 17:44 | 50.99258 | -0.11408 | 1507 ft | 106 kts | 91° |
| 2026-05-04 17:44 | 50.99218 | -0.10230 | 1504 ft | 106 kts | 91° |
| 2026-05-04 17:44 | 50.99347 | -0.09119 | 1490 ft | 105 kts | 48° |
| 2026-05-04 17:44 | 51.00022 | -0.08894 | 1494 ft | 109 kts | 340° |
| 2026-05-04 17:45 | 51.00432 | -0.09864 | 1498 ft | 117 kts | 277° |
| 2026-05-04 17:45 | 51.00417 | -0.11177 | 1506 ft | 117 kts | 272° |
| 2026-05-04 17:45 | 51.00394 | -0.12452 | 1505 ft | 117 kts | 271° |
| 2026-05-04 17:45 | 51.00368 | -0.13729 | 1505 ft | 115 kts | 271° |
| 2026-05-04 17:46 | 51.00343 | -0.14996 | 1495 ft | 115 kts | 271° |
| 2026-05-04 17:46 | 51.00318 | -0.16255 | 1497 ft | 113 kts | 271° |
| 2026-05-04 17:46 | 51.00292 | -0.17505 | 1501 ft | 114 kts | 271° |
| 2026-05-04 17:46 | 51.00265 | -0.18769 | 1498 ft | 114 kts | 271° |
| 2026-05-04 17:47 | 51.00238 | -0.20021 | 1498 ft | 113 kts | 271° |
| 2026-05-04 17:47 | 51.00213 | -0.21273 | 1493 ft | 114 kts | 271° |
| 2026-05-04 17:47 | 51.00186 | -0.22528 | 1494 ft | 113 kts | 271° |
| 2026-05-04 17:47 | 51.00157 | -0.23772 | 1497 ft | 113 kts | 271° |
| 2026-05-04 17:48 | 51.00125 | -0.25025 | 1496 ft | 113 kts | 271° |
| 2026-05-04 17:48 | 51.00156 | -0.26274 | 1493 ft | 112 kts | 295° |
| 2026-05-04 17:48 | 51.00502 | -0.26818 | 1502 ft | 107 kts | 344° |
| 2026-05-04 17:48 | 51.01311 | -0.26254 | 1512 ft | 103 kts | 47° |
| 2026-05-04 17:49 | 51.01817 | -0.25435 | 1511 ft | 104 kts | 46° |
| 2026-05-04 17:49 | 51.02314 | -0.24606 | 1510 ft | 103 kts | 46° |
| 2026-05-04 17:49 | 51.02822 | -0.23776 | 1511 ft | 104 kts | 46° |
| 2026-05-04 17:49 | 51.03320 | -0.22954 | 1500 ft | 103 kts | 46° |
| 2026-05-04 17:50 | 51.03813 | -0.22146 | 1504 ft | 104 kts | 46° |
| 2026-05-04 17:50 | 51.04313 | -0.21324 | 1506 ft | 102 kts | 46° |
| 2026-05-04 17:50 | 51.04809 | -0.20506 | 1497 ft | 103 kts | 46° |
| 2026-05-04 17:50 | 51.05319 | -0.19710 | 1500 ft | 103 kts | 33° |
| 2026-05-04 17:51 | 51.06033 | -0.19600 | 1499 ft | 106 kts | 1° |
| 2026-05-04 17:51 | 51.06779 | -0.19633 | 1507 ft | 108 kts | 1° |
| 2026-05-04 17:51 | 51.07535 | -0.19675 | 1507 ft | 109 kts | 1° |
| 2026-05-04 17:51 | 51.08290 | -0.19714 | 1505 ft | 108 kts | 1° |
| 2026-05-04 17:52 | 51.09040 | -0.19763 | 1505 ft | 108 kts | 0° |
| 2026-05-04 17:52 | 51.09793 | -0.19801 | 1507 ft | 108 kts | 1° |
| 2026-05-04 17:52 | 51.10542 | -0.19841 | 1508 ft | 107 kts | 1° |
| 2026-05-04 17:52 | 51.11290 | -0.19896 | 1507 ft | 108 kts | 1° |
| 2026-05-04 17:53 | 51.12037 | -0.19862 | 1453 ft | 105 kts | 20° |
| 2026-05-04 17:53 | 51.12448 | -0.19000 | 1473 ft | 102 kts | 83° |
| 2026-05-04 17:53 | 51.12092 | -0.17991 | 1381 ft | 120 kts | 156° |
| 2026-05-04 17:53 | 51.11352 | -0.18378 | 1440 ft | 120 kts | 231° |
| 2026-05-04 17:54 | 51.11128 | -0.19592 | 1439 ft | 117 kts | 285° |
| 2026-05-04 17:54 | 51.11654 | -0.20423 | 1441 ft | 107 kts | 358° |
| 2026-05-04 17:54 | 51.12230 | -0.19954 | 1586 ft | 96 kts | 64° |
| 2026-05-04 17:54 | 51.12042 | -0.18920 | 1457 ft | 120 kts | 145° |
| 2026-05-04 17:55 | 51.11340 | -0.19219 | 1617 ft | 109 kts | 246° |
| 2026-05-04 17:55 | 51.11568 | -0.20220 | 1590 ft | 107 kts | 339° |
| 2026-05-04 17:55 | 51.12299 | -0.20384 | 1640 ft | 100 kts | 5° |
| 2026-05-04 17:55 | 51.12976 | -0.20435 | 1628 ft | 106 kts | 356° |
| 2026-05-04 17:56 | 51.13736 | -0.20579 | 1593 ft | 109 kts | 356° |
| 2026-05-04 17:56 | 51.14490 | -0.20743 | 1576 ft | 111 kts | 356° |
| 2026-05-04 17:56 | 51.15251 | -0.20932 | 1622 ft | 108 kts | 349° |
| 2026-05-04 17:56 | 51.16001 | -0.21200 | 1594 ft | 110 kts | 348° |
| 2026-05-04 17:57 | 51.16758 | -0.21557 | 1551 ft | 112 kts | 342° |
| 2026-05-04 17:57 | 51.17525 | -0.21956 | 1419 ft | 120 kts | 344° |
| 2026-05-04 17:57 | 51.18302 | -0.22406 | 1366 ft | 119 kts | 341° |
| 2026-05-04 17:57 | 51.19050 | -0.22912 | 1437 ft | 110 kts | 340° |
| 2026-05-04 17:58 | 51.19790 | -0.23418 | 1311 ft | 118 kts | 345° |
| 2026-05-04 17:58 | 51.20548 | -0.23782 | 1351 ft | 110 kts | 347° |
| 2026-05-04 17:58 | 51.21285 | -0.24090 | 1311 ft | 111 kts | 348° |
| 2026-05-04 17:58 | 51.22030 | -0.24448 | 1216 ft | 114 kts | 346° |
| 2026-05-04 17:59 | 51.22801 | -0.24857 | 1131 ft | 116 kts | 344° |
| 2026-05-04 17:59 | 51.23552 | -0.25304 | 1071 ft | 116 kts | 343° |
| 2026-05-04 17:59 | 51.24947 | -0.26317 | 1174 ft | 107 kts | 311° |
| 2026-05-04 18:00 | 51.24880 | -0.27455 | 1100 ft | 123 kts | 249° |
| 2026-05-04 18:00 | 51.24545 | -0.28699 | 1148 ft | 114 kts | 247° |
| 2026-05-04 18:00 | 51.24187 | -0.29845 | 1029 ft | 122 kts | 246° |
| 2026-05-04 18:00 | 51.23840 | -0.31076 | 1051 ft | 118 kts | 246° |
| 2026-05-04 18:01 | 51.23499 | -0.32259 | 1098 ft | 118 kts | 252° |
| 2026-05-04 18:01 | 51.23209 | -0.33493 | 1121 ft | 119 kts | 250° |
| 2026-05-04 18:01 | 51.22792 | -0.34611 | 1172 ft | 117 kts | 224° |
| 2026-05-04 18:02 | 51.21865 | -0.34238 | 1345 ft | 100 kts | 82° |
| 2026-05-04 18:02 | 51.22380 | -0.33678 | 1358 ft | 105 kts | 350° |
| 2026-05-04 18:02 | 51.22725 | -0.34703 | 1242 ft | 124 kts | 258° |
| 2026-05-04 18:02 | 51.22136 | -0.35613 | 1292 ft | 119 kts | 194° |
| 2026-05-04 18:03 | 51.21443 | -0.35461 | 1476 ft | 101 kts | 133° |
| 2026-05-04 18:03 | 51.21579 | -0.34565 | 1327 ft | 110 kts | 10° |
| 2026-05-04 18:03 | 51.22047 | -0.35472 | 1228 ft | 125 kts | 268° |
| 2026-05-04 18:03 | 51.21518 | -0.36506 | 1212 ft | 121 kts | 197° |
| 2026-05-04 18:04 | 51.20744 | -0.36294 | 1216 ft | 115 kts | 136° |
| 2026-05-04 18:04 | 51.20612 | -0.35196 | 1219 ft | 108 kts | 54° |
| 2026-05-04 18:04 | 51.21326 | -0.36329 | 1105 ft | 126 kts | 221° |
| 2026-05-04 18:05 | 51.20580 | -0.36169 | 1091 ft | 115 kts | 119° |
| 2026-05-04 18:05 | 51.20793 | -0.35216 | 1150 ft | 106 kts | 16° |
| 2026-05-04 18:05 | 51.21404 | -0.35822 | 1194 ft | 113 kts | 295° |
| 2026-05-04 18:05 | 51.21215 | -0.36970 | 1209 ft | 122 kts | 218° |
| 2026-05-04 18:06 | 51.20189 | -0.36141 | 1471 ft | 98 kts | 75° |
| 2026-05-04 18:06 | 51.20727 | -0.35379 | 1317 ft | 111 kts | 34° |
| 2026-05-04 18:06 | 51.21363 | -0.34802 | 1444 ft | 103 kts | 25° |
| 2026-05-04 18:07 | 51.21737 | -0.33758 | 1053 ft | 129 kts | 91° |
| 2026-05-04 18:07 | 51.21698 | -0.32608 | 1472 ft | 92 kts | 79° |
| 2026-05-04 18:07 | 51.21937 | -0.31505 | 1252 ft | 113 kts | 69° |
| 2026-05-04 18:07 | 51.22235 | -0.30430 | 1402 ft | 100 kts | 62° |
| 2026-05-04 18:08 | 51.22666 | -0.29496 | 1321 ft | 111 kts | 48° |
| 2026-05-04 18:08 | 51.23066 | -0.28497 | 1398 ft | 104 kts | 68° |
| 2026-05-04 18:08 | 51.23279 | -0.27384 | 1384 ft | 107 kts | 70° |
| 2026-05-04 18:08 | 51.23584 | -0.26313 | 1341 ft | 108 kts | 61° |
| 2026-05-04 18:09 | 51.24033 | -0.24033 | 1342 ft | 107 kts | 77° |
| 2026-05-04 18:09 | 51.24594 | -0.21842 | 1336 ft | 106 kts | 48° |
| 2026-05-04 18:10 | 51.25218 | -0.21483 | 1445 ft | 101 kts | 344° |
| 2026-05-04 18:10 | 51.25471 | -0.22475 | 1447 ft | 116 kts | 246° |
| 2026-05-04 18:10 | 51.24779 | -0.23118 | 1294 ft | 125 kts | 186° |
| 2026-05-04 18:10 | 51.23969 | -0.23068 | 1413 ft | 111 kts | 161° |
| 2026-05-04 18:11 | 51.23433 | -0.22200 | 1205 ft | 120 kts | 99° |
| 2026-05-04 18:11 | 51.23821 | -0.21225 | 1132 ft | 116 kts | 10° |
| 2026-05-04 18:11 | 51.24366 | -0.22077 | 881 ft | 134 kts | 266° |
| 2026-05-04 18:11 | 51.23718 | -0.22939 | 908 ft | 118 kts | 178° |
| 2026-05-04 18:12 | 51.23210 | -0.22177 | 889 ft | 109 kts | 91° |
| 2026-05-04 18:12 | 51.23534 | -0.21424 | 1202 ft | 88 kts | 13° |
| 2026-05-04 18:12 | 51.24054 | -0.22033 | 1150 ft | 106 kts | 283° |
| 2026-05-04 18:12 | 51.23663 | -0.22928 | 1163 ft | 113 kts | 188° |
| 2026-05-04 18:13 | 51.23101 | -0.22425 | 1288 ft | 99 kts | 102° |
| 2026-05-04 18:13 | 51.23482 | -0.21664 | 1284 ft | 103 kts | 357° |
| 2026-05-04 18:13 | 51.23074 | -0.22861 | 1342 ft | 102 kts | 137° |
| 2026-05-04 18:14 | 51.23046 | -0.21899 | 1361 ft | 98 kts | 43° |
| 2026-05-04 18:14 | 51.23694 | -0.21982 | 1370 ft | 108 kts | 318° |
| 2026-05-04 18:14 | 51.23738 | -0.23071 | 1402 ft | 115 kts | 224° |
| 2026-05-04 18:15 | 51.23021 | -0.21760 | 1419 ft | 97 kts | 57° |
| 2026-05-04 18:15 | 51.23928 | -0.22621 | 1199 ft | 125 kts | 246° |
| 2026-05-04 18:15 | 51.23170 | -0.22972 | 1002 ft | 125 kts | 142° |
| 2026-05-04 18:16 | 51.23015 | -0.21808 | 941 ft | 116 kts | 51° |
| 2026-05-04 18:16 | 51.23680 | -0.21905 | 1100 ft | 107 kts | 306° |
| 2026-05-04 18:16 | 51.23458 | -0.22954 | 1091 ft | 115 kts | 204° |
| 2026-05-04 18:17 | 51.22949 | -0.21899 | 1191 ft | 102 kts | 9° |
| 2026-05-04 18:17 | 51.23268 | -0.22820 | 1067 ft | 122 kts | 256° |
| 2026-05-04 18:17 | 51.22531 | -0.22421 | 1063 ft | 104 kts | 36° |
| 2026-05-04 18:18 | 51.23074 | -0.22885 | 946 ft | 124 kts | 271° |
| 2026-05-04 18:18 | 51.22549 | -0.23836 | 906 ft | 124 kts | 188° |
| 2026-05-04 18:18 | 51.21858 | -0.23400 | 1183 ft | 90 kts | 133° |
| 2026-05-04 18:18 | 51.21880 | -0.22635 | 1236 ft | 90 kts | 23° |
| 2026-05-04 18:19 | 51.23237 | -0.22232 | 1299 ft | 95 kts | 8° |
| 2026-05-04 18:19 | 51.23916 | -0.22247 | 1364 ft | 97 kts | 359° |
| 2026-05-04 18:19 | 51.24528 | -0.22464 | 1501 ft | 95 kts | 331° |
| 2026-05-04 18:20 | 51.24694 | -0.23454 | 1541 ft | 108 kts | 245° |
| 2026-05-04 18:20 | 51.24046 | -0.23886 | 1446 ft | 116 kts | 154° |
| 2026-05-04 18:20 | 51.23741 | -0.22859 | 1355 ft | 113 kts | 68° |
| 2026-05-04 18:20 | 51.24415 | -0.22462 | 1307 ft | 114 kts | 336° |
| 2026-05-04 18:21 | 51.24573 | -0.23600 | 1167 ft | 131 kts | 234° |
| 2026-05-04 18:21 | 51.23763 | -0.23992 | 1184 ft | 116 kts | 160° |
| 2026-05-04 18:21 | 51.23302 | -0.23068 | 1110 ft | 114 kts | 94° |
| 2026-05-04 18:21 | 51.23677 | -0.22112 | 1085 ft | 113 kts | 17° |
| 2026-05-04 18:22 | 51.24337 | -0.22634 | 1078 ft | 118 kts | 295° |
| 2026-05-04 18:22 | 51.24136 | -0.23857 | 1066 ft | 120 kts | 221° |
| 2026-05-04 18:22 | 51.23411 | -0.23829 | 1013 ft | 115 kts | 126° |
| 2026-05-04 18:22 | 51.23456 | -0.22693 | 958 ft | 113 kts | 50° |
| 2026-05-04 18:23 | 51.24156 | -0.22318 | 967 ft | 113 kts | 348° |
| 2026-05-04 18:23 | 51.24610 | -0.23355 | 736 ft | 133 kts | 267° |
| 2026-05-04 18:23 | 51.24061 | -0.24319 | 800 ft | 119 kts | 187° |
| 2026-05-04 18:23 | 51.23419 | -0.23907 | 968 ft | 98 kts | 114° |
| 2026-05-04 18:24 | 51.23679 | -0.23024 | 990 ft | 99 kts | 18° |
| 2026-05-04 18:24 | 51.24238 | -0.23547 | 1042 ft | 110 kts | 292° |
| 2026-05-04 18:24 | 51.24001 | -0.24595 | 1122 ft | 108 kts | 207° |
| 2026-05-04 18:24 | 51.23376 | -0.24241 | 1091 ft | 106 kts | 106° |
| 2026-05-04 18:25 | 51.23751 | -0.23523 | 1049 ft | 111 kts | 346° |
| 2026-05-04 18:25 | 51.23754 | -0.24581 | 898 ft | 121 kts | 207° |
| 2026-05-04 18:25 | 51.23220 | -0.24215 | 1151 ft | 89 kts | 80° |
| 2026-05-04 18:25 | 51.23708 | -0.24107 | 1173 ft | 98 kts | 314° |
| 2026-05-04 18:26 | 51.23620 | -0.25048 | 1331 ft | 99 kts | 207° |
| 2026-05-04 18:26 | 51.22910 | -0.24831 | 1176 ft | 117 kts | 157° |
| 2026-05-04 18:26 | 51.22149 | -0.24408 | 1244 ft | 112 kts | 157° |
| 2026-05-04 18:26 | 51.21420 | -0.23902 | 1231 ft | 118 kts | 155° |
| 2026-05-04 18:27 | 51.20652 | -0.23459 | 1260 ft | 118 kts | 166° |
| 2026-05-04 18:27 | 51.19859 | -0.23125 | 1221 ft | 120 kts | 161° |
| 2026-05-04 18:27 | 51.19056 | -0.22847 | 1268 ft | 109 kts | 130° |
| 2026-05-04 18:27 | 51.18768 | -0.21668 | 1131 ft | 118 kts | 105° |
| 2026-05-04 18:28 | 51.18454 | -0.20458 | 1080 ft | 118 kts | 123° |
| 2026-05-04 18:28 | 51.17707 | -0.19947 | 1030 ft | 124 kts | 183° |
| 2026-05-04 18:28 | 51.16978 | -0.20641 | 1023 ft | 123 kts | 233° |
| 2026-05-04 18:28 | 51.16511 | -0.21782 | 1105 ft | 117 kts | 237° |
| 2026-05-04 18:29 | 51.16082 | -0.22894 | 1096 ft | 123 kts | 248° |
| 2026-05-04 18:29 | 51.15835 | -0.24168 | 1176 ft | 117 kts | 256° |
| 2026-05-04 18:29 | 51.15918 | -0.25361 | 1091 ft | 118 kts | 332° |
| 2026-05-04 18:29 | 51.16566 | -0.24996 | 1113 ft | 108 kts | 65° |
| 2026-05-04 18:30 | 51.15540 | -0.23744 | 951 ft | 126 kts | 206° |
| 2026-05-04 18:30 | 51.15204 | -0.24925 | 951 ft | 123 kts | 288° |
| 2026-05-04 18:30 | 51.15751 | -0.25733 | 1124 ft | 103 kts | 350° |
| 2026-05-04 18:31 | 51.16270 | -0.25078 | 828 ft | 123 kts | 91° |
| 2026-05-04 18:31 | 51.15680 | -0.24369 | 785 ft | 132 kts | 191° |
| 2026-05-04 18:31 | 51.15165 | -0.25337 | 1030 ft | 113 kts | 264° |
| 2026-05-04 18:31 | 51.15388 | -0.26518 | 981 ft | 113 kts | 323° |
| 2026-05-04 18:32 | 51.16091 | -0.26487 | 916 ft | 111 kts | 46° |
| 2026-05-04 18:32 | 51.16179 | -0.25386 | 1020 ft | 111 kts | 121° |
| 2026-05-04 18:32 | 51.15429 | -0.25116 | 1058 ft | 118 kts | 200° |
| 2026-05-04 18:32 | 51.14875 | -0.26005 | 1102 ft | 121 kts | 251° |
| 2026-05-04 18:33 | 51.14318 | -0.26714 | 1225 ft | 108 kts | 159° |
| 2026-05-04 18:33 | 51.13834 | -0.25841 | 1173 ft | 108 kts | 87° |
| 2026-05-04 18:33 | 51.14028 | -0.24579 | 857 ft | 125 kts | 72° |
| 2026-05-04 18:33 | 51.14200 | -0.23268 | 665 ft | 114 kts | 77° |
| 2026-05-04 18:34 | 51.14366 | -0.22212 | 517 ft | 79 kts | 77° |
| 2026-05-04 18:34 | 51.14488 | -0.21445 | 362 ft | 65 kts | 72° |
| 2026-05-04 18:34 | 51.14585 | -0.20781 | 237 ft | 56 kts | 73° |
| 2026-05-04 18:34 | 51.14678 | -0.20225 | 204 ft | 49 kts | 76° |
| 2026-05-04 18:35 | 51.14731 | -0.19762 | 205 ft | 33 kts | 78° |
| 2026-05-04 18:35 | 51.14769 | -0.19444 | 204 ft | 30 kts | 80° |
| 2026-05-04 18:35 | 51.14818 | -0.19064 | 207 ft | 39 kts | 78° |
| 2026-05-04 18:35 | 51.14888 | -0.18619 | 203 ft | 38 kts | 61° |
| 2026-05-04 18:36 | 51.15038 | -0.18315 | 204 ft | 31 kts | 48° |
| 2026-05-04 18:36 | 51.15134 | -0.18197 | 200 ft | 13 kts | 0° |
| 2026-05-04 18:36 | 51.15145 | -0.18198 | 200 ft | 0 kts | 352° |
| 2026-05-04 18:39 | 51.15186 | -0.18236 | 205 ft | 14 kts | 291° |
| 2026-05-04 18:39 | 51.15175 | -0.18444 | 200 ft | 23 kts | 256° |
| 2026-05-04 18:39 | 51.15137 | -0.18676 | 203 ft | 20 kts | 257° |
| 2026-05-04 18:39 | 51.15110 | -0.18879 | 204 ft | 18 kts | 257° |
| 2026-05-04 18:40 | 51.15087 | -0.19059 | 200 ft | 15 kts | 256° |
| 2026-05-04 18:40 | 51.15065 | -0.19219 | 200 ft | 14 kts | 261° |
| 2026-05-04 18:40 | 51.15119 | -0.19306 | 206 ft | 12 kts | 350° |
| 2026-05-04 18:40 | 51.15190 | -0.19330 | 206 ft | 10 kts | 348° |
| 2026-05-04 18:41 | 51.15249 | -0.19350 | 200 ft | 8 kts | 347° |
| 2026-05-04 18:41 | 51.15297 | -0.19368 | 200 ft | 6 kts | 348° |
| 2026-05-04 18:41 | 51.15338 | -0.19371 | 200 ft | 5 kts | 25° |
| 2026-05-04 18:41 | 51.15363 | -0.19313 | 200 ft | 10 kts | 64° |
| 2026-05-04 18:42 | 51.15380 | -0.19218 | 202 ft | 8 kts | 78° |
| 2026-05-04 18:42 | 51.15384 | -0.19193 | 200 ft | 0 kts | 76° |